Utica, Kansas
Current Conditions -  °F | °C
As of 12:55 AM on Sunday 23 Nov 2014 (Local Time) from KHYS Reporting Station
Overcast Overcast  
Wind Chill: 54°   Ceiling: 1400
Heat Index: 54°   Visibility: 10mi
Dew Point: 45°   Wind: 22mph
Humidity: 72%   Direction: 190°S
Pressure: 29.49"   Gusts: 31mph
Location:  38.64°N, 100.17°W
Report Text: KHYS 230655Z AUTO 19019G27KT 10SM OVC014 12/07 A2949 RMK AO1
Loading
Personal Weather Stations






























Interactive Weather Map New forecast layout! Learn more

10-Day Weather Forecast

Advertisements
Track Severe Weather on mobile